Milwaukee, Wisconsin
Traffic Map
Current Weather Conditions
Milwaukee, Wisconsin
Broken Clouds
Broken Clouds
19°
Feels Like: 19°
Wind Chill: 19° Ceiling: 25000
Heat Index: 19° Visibility: 7mi
Dew Point: 13° Wind: 3mph
Humidity: 66% Direction: 180° (S)
Pressure: 30.02in Gusts: 0mph
Raw Report DataKMKE 050352Z 18003KT 7SM FEW010 BKN250 19/13 A3002 RMK AO2 SLP161 FU FEW010 T01940128
Traffic Incident Summary
Active as of:
Severity:
Category:
InformationThere was an issue retrieving the traffic information for this location. Please try a different location or try again shortly.
Advertisements
Track Severe Weather on mobile